Skip Navigation Links Skip Navigation Links

Current Weather

Elefsis Airport, Greece

For information only: do not use for flight planning or navigation.
Latest weather
Observation time Sunday, September 20, 2020 3:50 PM EEST
Local time Sunday, September 20, 2020 4:10 PM EEST
Flight conditions Visual Meteorological Conditions
Winds
Wind direction North-Northwest (340°)
Wind speed 14 mph
Wind gusting to 25 mph
Visibility 6.2 mi.
Sky condition
Ceiling unlimited
Cloud layer few clouds 2,500 ft.
Temperature 77°F
Dewpoint 52°F
Altimeter 29.94 in.Hg
Derived measurements
Relative humidity 41%
Heat index 77°F
Density altitude 1362 ft.
METAR LGEL 201250Z 34012G22KT 9999 FEW025 25/11 Q1014

Settings

Location code

InnerDrive.Weather 4.0.6770.0 Release CLR 4.0.30319.42000
Copyright ©2018 Inner Drive Technology. All rights reserved. Portions Copyright ©1986-2018 David Braverman.

Find weather

Site navigation


Skip Navigation Links

Place info

Page info

PayPal - The safer, easier way to pay online!

Return home.

Copyright ©2020 Inner Drive Technology. Purveyors of fine, hand-crafted computer software. Page printed 2020-09-20T13:10:17 UTC.